Ana Sayfa
METAR-TAF:

METAR-TAF

Havaalanları :

Ashe County Airport

West Jefferson, Kuzey Carolina, Amerika Birleşik Devletleri

Enlem: 36-26N, Boylam: 081-25W, yükseklik: 969 m

Güncel hava durumu gözlemi

Rapor saat 10:15 UTC de 20 dakika önce yapıldı.
Rüzgar batıdan 13 kt ve 21 kt'a kadar ani rüzgarlar
Sıcaklık -3°C
Nem 63%
Basınç 1014 hPa
Görüş mesafesi: 16.1 km
Açık gökyüzü

METAR: KGEV 281015Z AUTO 27013G21KT 10SM CLR M03/M09 A2994 RMK AO2 T10321093

Saat: 05:35 (10:35 UTC)


TAF: eksik

4.000'den fazla havaalanı için hava durumu gözlemleri ve tahminleri (METAR ve TAF raporları).

Kullanılabilir istasyonlar harita üzerinde sarı ve kırmızı noktalarla gösterilir.

İstasyonun adını görmek için fareyi noktanın üzerinde gezdirin.

Sonrasında hava gözlem ve tahminlerini görmek için tıklayın.

Haritayı değiştirmek için: yaklaştırmak için siyah artı işaretli yeşil düğmeye ve uzaklaştırmak için de eksi işaretli düğmeye hızla tıklayın; bitişik haritalar için yeşil okları kullanın.


METAR-TAF: